Time;durP1;ratioP1;P1;durP2;ratioP2;P2;SDS_P1;SDS_P2;PMS_P1;PMS_P2;Temp;Humidity;BMP_temperature;BMP_pressure;BME280_temperature;BME280_humidity;BME280_pressure;Samples;Min_cycle;Max_cycle;Signal;HPM_P1;HPM_P2
2022/02/13 00:02:06;;;;;;;10.20;6.97;;;0.20;99.90;;;;;;5079841;28;20201;-63
2022/02/13 00:04:33;;;;;;;11.73;6.93;;;0.20;99.90;;;;;;5077127;28;20213;-63
2022/02/13 00:07:00;;;;;;;9.97;6.87;;;0.20;99.90;;;;;;5074843;28;20201;-63
2022/02/13 00:09:28;;;;;;;10.87;6.80;;;0.10;99.90;;;;;;5074403;28;20231;-63
2022/02/13 00:11:55;;;;;;;7.47;5.50;;;0.10;99.90;;;;;;5074496;28;20205;-64
2022/02/13 00:14:21;;;;;;;9.50;6.47;;;0.10;99.90;;;;;;5074235;28;20721;-63
2022/02/13 00:16:48;;;;;;;10.07;5.80;;;0.00;99.90;;;;;;5073149;28;20692;-63
2022/02/13 00:19:16;;;;;;;10.67;5.77;;;0.10;99.90;;;;;;5074033;28;20583;-63
2022/02/13 00:21:43;;;;;;;9.73;6.60;;;0.10;99.90;;;;;;5074592;28;20208;-63
2022/02/13 00:24:09;;;;;;;7.97;6.50;;;0.20;99.90;;;;;;5076984;28;20232;-63
2022/02/13 00:26:37;;;;;;;9.23;6.20;;;0.20;99.90;;;;;;5075233;28;20205;-63
2022/02/13 00:29:03;;;;;;;9.87;6.27;;;0.20;99.90;;;;;;5056343;28;20256;-63
2022/02/13 00:31:30;;;;;;;7.90;6.20;;;0.30;99.90;;;;;;5062597;28;20205;-65
2022/02/13 00:33:57;;;;;;;8.43;6.10;;;0.30;99.90;;;;;;5073965;28;20225;-65
2022/02/13 00:36:25;;;;;;;10.07;5.63;;;0.30;99.90;;;;;;5072498;28;20224;-65
2022/02/13 00:38:52;;;;;;;8.63;5.90;;;0.20;99.90;;;;;;5073622;28;20208;-61
2022/02/13 00:41:19;;;;;;;8.77;5.80;;;0.20;99.90;;;;;;5073932;28;20601;-62
2022/02/13 00:43:45;;;;;;;9.13;6.13;;;0.10;99.90;;;;;;5073747;28;20311;-62
2022/02/13 00:46:12;;;;;;;8.33;5.97;;;0.10;99.90;;;;;;5073645;28;20549;-61
2022/02/13 00:48:39;;;;;;;7.97;5.93;;;0.10;99.90;;;;;;5073064;28;20601;-62
2022/02/13 00:51:06;;;;;;;8.50;5.50;;;0.10;99.90;;;;;;5073781;28;20217;-62
2022/02/13 00:53:34;;;;;;;9.57;6.40;;;0.00;99.90;;;;;;5073637;28;20274;-62
2022/02/13 00:56:01;;;;;;;9.60;6.13;;;0.00;99.90;;;;;;5073323;28;20200;-62
2022/02/13 00:58:28;;;;;;;7.07;5.60;;;0.10;99.90;;;;;;5073142;28;20258;-62
2022/02/13 01:00:55;;;;;;;8.00;6.20;;;0.10;99.90;;;;;;5073872;28;20232;-62
2022/02/13 01:03:21;;;;;;;9.73;6.40;;;0.00;99.90;;;;;;5073374;28;20232;-62
2022/02/13 01:05:48;;;;;;;7.53;5.97;;;0.00;99.90;;;;;;5073348;28;20707;-62
2022/02/13 01:08:15;;;;;;;7.20;6.30;;;0.00;99.90;;;;;;5072816;28;20577;-61
2022/02/13 01:10:43;;;;;;;7.87;5.70;;;0.10;99.90;;;;;;5073253;28;20633;-62
2022/02/13 01:13:09;;;;;;;8.73;5.87;;;0.10;99.90;;;;;;5073581;28;20225;-62
2022/02/13 01:15:36;;;;;;;11.77;6.17;;;0.10;99.90;;;;;;5073443;28;20200;-61
2022/02/13 01:18:03;;;;;;;8.80;6.10;;;0.10;99.90;;;;;;5072812;28;20229;-62
2022/02/13 01:20:29;;;;;;;7.73;5.53;;;0.10;99.90;;;;;;5073176;28;20255;-62
2022/02/13 01:22:56;;;;;;;9.10;5.77;;;0.00;99.90;;;;;;5073196;28;20254;-62
2022/02/13 01:25:23;;;;;;;7.97;5.80;;;0.10;99.90;;;;;;5073098;28;20205;-62
2022/02/13 01:27:51;;;;;;;9.77;5.80;;;0.20;99.90;;;;;;5072512;28;20588;-61
2022/02/13 01:30:17;;;;;;;8.93;5.50;;;0.30;99.90;;;;;;5073103;28;20239;-62
2022/02/13 01:32:44;;;;;;;8.57;5.17;;;0.20;99.90;;;;;;5072926;28;20232;-62
2022/02/13 01:35:11;;;;;;;7.27;5.30;;;0.20;99.90;;;;;;5072741;28;20695;-62
2022/02/13 01:37:38;;;;;;;6.97;5.20;;;0.20;99.90;;;;;;5072681;28;20575;-62
2022/02/13 01:40:06;;;;;;;7.57;5.37;;;0.30;99.90;;;;;;5072896;28;20209;-62
2022/02/13 01:43:00;;;;;;;8.30;5.40;;;0.40;99.90;;;;;;5072989;28;20231;-61
2022/02/13 01:45:29;;;;;;;7.47;4.90;;;0.40;99.90;;;;;;5073175;28;20205;-61
2022/02/13 01:47:55;;;;;;;9.33;5.53;;;0.50;99.90;;;;;;5072673;28;20212;-62
2022/02/13 01:50:22;;;;;;;8.33;5.23;;;0.60;99.90;;;;;;5072857;28;20266;-62
2022/02/13 01:52:50;;;;;;;7.57;5.27;;;0.80;99.90;;;;;;5072577;28;20290;-62
2022/02/13 01:55:16;;;;;;;6.80;5.17;;;0.90;99.90;;;;;;5072707;28;20251;-62
2022/02/13 01:57:43;;;;;;;8.67;5.10;;;0.90;99.90;;;;;;5072116;28;20705;-62
2022/02/13 02:00:11;;;;;;;7.43;4.90;;;0.90;99.90;;;;;;5072300;28;20201;-62
2022/02/13 02:02:39;;;;;;;6.67;5.10;;;0.90;99.90;;;;;;5072544;28;20664;-61
2022/02/13 02:05:06;;;;;;;8.97;5.30;;;0.90;99.90;;;;;;5072364;28;20205;-61
2022/02/13 02:07:33;;;;;;;6.83;5.40;;;0.90;99.90;;;;;;5072360;28;20204;-61
2022/02/13 02:10:00;;;;;;;7.90;5.20;;;1.00;99.90;;;;;;5072434;28;20234;-61
2022/02/13 02:12:26;;;;;;;8.50;6.00;;;1.00;99.90;;;;;;5072219;28;20228;-61
2022/02/13 02:14:53;;;;;;;7.67;5.37;;;1.00;99.90;;;;;;5072345;28;20577;-62
2022/02/13 02:17:20;;;;;;;8.30;5.27;;;1.00;99.90;;;;;;5072441;28;20283;-61
2022/02/13 02:19:48;;;;;;;6.30;5.03;;;0.90;99.90;;;;;;5071812;28;20292;-61
2022/02/13 02:22:15;;;;;;;6.37;5.10;;;0.80;99.90;;;;;;5072083;28;20632;-61
2022/02/13 02:24:45;;;;;;;7.03;4.97;;;0.90;99.90;;;;;;5072462;28;20653;-61
2022/02/13 02:27:12;;;;;;;9.57;5.13;;;0.90;99.90;;;;;;5072322;28;20254;-61
2022/02/13 02:29:38;;;;;;;8.47;4.80;;;0.90;99.90;;;;;;5071927;28;20622;-62
2022/02/13 02:32:10;;;;;;;6.43;4.90;;;0.90;99.90;;;;;;5072019;28;20212;-63
2022/02/13 02:34:37;;;;;;;10.23;5.37;;;0.70;99.90;;;;;;5071983;28;20667;-61
2022/02/13 02:37:05;;;;;;;8.67;5.43;;;0.50;99.90;;;;;;5071991;28;20757;-61
2022/02/13 02:39:31;;;;;;;8.03;5.10;;;0.50;99.90;;;;;;5075463;28;20201;-62
2022/02/13 02:41:59;;;;;;;7.67;5.17;;;0.50;99.90;;;;;;5077011;28;20220;-62
2022/02/13 02:44:26;;;;;;;6.77;4.80;;;0.60;99.90;;;;;;5076110;28;20281;-62
2022/02/13 02:46:53;;;;;;;6.83;4.70;;;0.50;99.90;;;;;;5076174;28;20201;-62
2022/02/13 02:49:19;;;;;;;8.23;5.00;;;0.50;99.90;;;;;;5075946;28;20262;-62
2022/02/13 02:51:46;;;;;;;6.50;5.00;;;0.50;99.90;;;;;;5082813;28;20209;-62
2022/02/13 02:54:13;;;;;;;6.40;4.87;;;0.30;99.90;;;;;;5080522;28;20785;-62
2022/02/13 02:56:39;;;;;;;6.50;5.10;;;0.20;99.90;;;;;;5075781;28;20231;-62
2022/02/13 02:59:07;;;;;;;7.20;5.13;;;0.20;99.90;;;;;;5075413;28;20260;-62
2022/02/13 03:01:34;;;;;;;7.00;4.90;;;0.20;99.90;;;;;;5075963;28;20209;-61
2022/02/13 03:04:01;;;;;;;7.40;5.30;;;0.30;99.90;;;;;;5099593;22;20237;-58
2022/02/13 03:06:27;;;;;;;8.00;5.63;;;0.30;99.90;;;;;;5066968;28;20208;-58
2022/02/13 03:08:54;;;;;;;8.97;6.00;;;0.40;99.90;;;;;;5075236;28;20207;-58
2022/02/13 03:11:21;;;;;;;7.83;5.70;;;0.40;99.90;;;;;;5075243;28;20859;-58
2022/02/13 03:13:47;;;;;;;8.90;5.00;;;0.40;99.90;;;;;;5075124;28;20248;-58
2022/02/13 03:16:15;;;;;;;9.70;5.10;;;0.40;99.90;;;;;;5075617;28;20205;-58
2022/02/13 03:18:42;;;;;;;7.17;4.70;;;0.30;99.90;;;;;;5075328;28;20225;-58
2022/02/13 03:21:09;;;;;;;6.27;4.93;;;0.30;99.90;;;;;;5075171;28;20205;-58
2022/02/13 03:23:35;;;;;;;7.17;5.00;;;0.30;99.90;;;;;;5074772;28;20727;-58
2022/02/13 03:26:02;;;;;;;7.37;4.80;;;0.30;99.90;;;;;;5075214;28;20630;-58
2022/02/13 03:28:29;;;;;;;7.03;4.70;;;0.30;99.90;;;;;;5074894;28;20201;-58
2022/02/13 03:30:55;;;;;;;6.10;4.77;;;0.40;99.90;;;;;;5075045;28;20205;-57
2022/02/13 03:33:23;;;;;;;7.87;4.93;;;0.40;99.90;;;;;;5074822;28;20628;-57
2022/02/13 03:35:50;;;;;;;8.63;4.73;;;0.30;99.90;;;;;;5074675;28;20554;-57
2022/02/13 03:38:17;;;;;;;6.23;4.47;;;0.30;99.90;;;;;;5074467;28;20298;-58
2022/02/13 03:40:44;;;;;;;7.47;4.67;;;0.30;99.90;;;;;;5074651;28;20227;-58
2022/02/13 03:43:10;;;;;;;8.73;5.27;;;0.40;99.90;;;;;;5074388;28;20240;-58
2022/02/13 03:45:37;;;;;;;6.90;4.73;;;0.30;99.90;;;;;;5074908;28;20213;-58
2022/02/13 03:48:04;;;;;;;6.73;4.63;;;0.30;99.90;;;;;;5074613;28;20197;-58
2022/02/13 03:50:32;;;;;;;8.70;5.10;;;0.40;99.90;;;;;;5073866;28;20209;-59
2022/02/13 03:52:59;;;;;;;6.17;4.87;;;0.40;99.90;;;;;;5074229;28;20228;-59
2022/02/13 03:55:26;;;;;;;6.77;4.30;;;0.30;99.90;;;;;;5074828;28;20209;-58
2022/02/13 03:57:53;;;;;;;6.90;4.57;;;0.30;99.90;;;;;;5074224;28;20220;-58
2022/02/13 04:00:20;;;;;;;8.53;4.43;;;0.30;99.90;;;;;;5074698;28;20267;-59
2022/02/13 04:02:47;;;;;;;5.93;4.20;;;0.30;99.90;;;;;;5074213;28;20244;-58
2022/02/13 04:05:15;;;;;;;9.13;5.33;;;0.40;99.90;;;;;;5074271;28;20201;-58
2022/02/13 04:07:44;;;;;;;12.60;10.47;;;0.40;99.90;;;;;;5073841;28;20205;-58
2022/02/13 04:10:12;;;;;;;9.63;5.40;;;0.40;99.90;;;;;;5074100;28;20212;-58
2022/02/13 04:12:39;;;;;;;5.83;4.87;;;0.40;99.90;;;;;;5074078;28;20220;-58
2022/02/13 04:15:07;;;;;;;7.10;4.70;;;0.30;99.90;;;;;;5074131;28;20224;-59
2022/02/13 04:17:34;;;;;;;5.13;4.23;;;0.30;99.90;;;;;;5073875;28;20263;-60
2022/02/13 04:20:01;;;;;;;6.53;4.80;;;0.40;99.90;;;;;;5073788;28;20584;-59
2022/02/13 04:22:28;;;;;;;7.23;5.13;;;0.40;99.90;;;;;;5073834;28;20554;-59
2022/02/13 04:24:56;;;;;;;5.77;4.47;;;0.40;99.90;;;;;;5073777;28;20254;-61
2022/02/13 04:27:22;;;;;;;6.93;4.90;;;0.40;99.90;;;;;;5073677;28;20258;-59
2022/02/13 04:29:49;;;;;;;7.17;4.47;;;0.40;99.90;;;;;;5073719;28;20205;-58
2022/02/13 04:32:16;;;;;;;6.93;4.87;;;0.40;99.90;;;;;;5073732;28;20266;-58
2022/02/13 04:34:45;;;;;;;7.33;4.50;;;0.40;99.90;;;;;;5073681;28;20290;-59
2022/02/13 04:37:12;;;;;;;9.60;5.13;;;0.30;99.90;;;;;;5073347;28;20205;-59
2022/02/13 04:39:39;;;;;;;6.63;5.00;;;0.30;99.90;;;;;;5073544;28;20209;-58
2022/02/13 04:42:07;;;;;;;10.67;7.03;;;0.40;99.90;;;;;;5073396;28;20209;-59
2022/02/13 04:44:34;;;;;;;6.83;5.00;;;0.40;99.90;;;;;;5073432;28;20278;-59
2022/02/13 04:47:01;;;;;;;6.87;4.97;;;0.40;99.90;;;;;;5073437;28;20258;-59
2022/02/13 04:49:27;;;;;;;12.00;5.33;;;0.40;99.90;;;;;;5073190;28;20205;-59
2022/02/13 04:51:54;;;;;;;8.27;5.40;;;0.40;99.90;;;;;;5073199;28;20234;-58
2022/02/13 04:54:21;;;;;;;10.67;7.20;;;0.50;99.90;;;;;;5073223;28;20229;-59
2022/02/13 04:56:49;;;;;;;9.63;6.57;;;0.50;99.90;;;;;;5073317;28;20226;-58
2022/02/13 04:59:17;;;;;;;7.47;5.17;;;0.30;99.90;;;;;;5072917;28;20645;-59
2022/02/13 05:01:44;;;;;;;8.67;5.60;;;0.30;99.90;;;;;;5072723;28;20212;-58
2022/02/13 05:04:10;;;;;;;10.17;6.17;;;0.30;99.90;;;;;;5072902;28;20232;-59
2022/02/13 05:06:37;;;;;;;10.27;6.33;;;0.20;99.90;;;;;;5072922;28;20212;-59
2022/02/13 05:09:04;;;;;;;12.13;8.20;;;0.20;99.90;;;;;;5072826;28;20821;-59
2022/02/13 05:11:31;;;;;;;9.27;5.87;;;0.30;99.90;;;;;;5073024;28;20212;-58
2022/02/13 05:13:58;;;;;;;16.17;10.07;;;0.40;99.90;;;;;;5073026;28;20225;-59
2022/02/13 05:16:26;;;;;;;7.63;6.23;;;0.40;99.90;;;;;;5072989;28;20236;-59
2022/02/13 05:18:53;;;;;;;8.07;5.97;;;0.40;99.90;;;;;;5072489;28;20232;-60
2022/02/13 05:21:20;;;;;;;10.73;5.63;;;0.40;99.90;;;;;;5073020;28;20631;-57
2022/02/13 05:23:47;;;;;;;8.87;5.70;;;0.40;99.90;;;;;;5072927;28;20232;-59
2022/02/13 05:26:14;;;;;;;11.30;7.03;;;0.40;99.90;;;;;;5072742;28;20216;-58
2022/02/13 05:28:41;;;;;;;9.27;5.60;;;0.40;99.90;;;;;;5072472;28;20204;-60
2022/02/13 05:31:07;;;;;;;8.73;5.40;;;0.50;99.90;;;;;;5072956;28;20206;-57
2022/02/13 05:33:35;;;;;;;9.10;6.23;;;0.40;99.90;;;;;;5072781;28;20231;-59
2022/02/13 05:36:02;;;;;;;8.93;6.03;;;0.50;99.90;;;;;;5072545;28;20212;-59
2022/02/13 05:38:29;;;;;;;7.50;4.77;;;0.40;99.90;;;;;;5072242;28;20289;-59
2022/02/13 05:40:56;;;;;;;9.43;5.80;;;0.40;99.90;;;;;;5072872;28;20217;-59
2022/02/13 05:43:22;;;;;;;8.07;5.43;;;0.40;99.90;;;;;;5072391;28;20264;-59
2022/02/13 05:45:49;;;;;;;11.87;6.80;;;0.40;99.90;;;;;;5072268;28;20204;-58
2022/02/13 05:48:16;;;;;;;8.27;5.50;;;0.40;99.90;;;;;;5072060;28;20208;-60
2022/02/13 05:50:44;;;;;;;9.43;6.67;;;0.40;99.90;;;;;;5072637;28;20217;-60
2022/02/13 05:53:10;;;;;;;7.23;5.60;;;0.40;99.90;;;;;;5072341;28;20270;-59
2022/02/13 05:55:37;;;;;;;9.47;5.57;;;0.40;99.90;;;;;;5072445;28;20209;-58
2022/02/13 05:58:04;;;;;;;8.27;5.60;;;0.40;99.90;;;;;;5071985;28;20653;-58
2022/02/13 06:00:32;;;;;;;8.27;5.70;;;0.30;99.90;;;;;;5072244;28;20209;-58
2022/02/13 06:02:59;;;;;;;8.83;5.93;;;0.40;99.90;;;;;;5072251;28;20251;-58
2022/02/13 06:05:26;;;;;;;8.47;5.50;;;0.40;99.90;;;;;;5072505;28;20209;-58
2022/02/13 06:07:54;;;;;;;11.10;5.83;;;0.40;99.90;;;;;;5072463;28;20266;-58
2022/02/13 06:10:20;;;;;;;8.17;5.73;;;0.40;99.90;;;;;;5072149;28;20211;-58
2022/02/13 06:12:48;;;;;;;9.63;5.43;;;0.50;99.90;;;;;;5072017;28;20228;-59
2022/02/13 06:15:15;;;;;;;7.20;5.37;;;0.40;99.90;;;;;;5071270;28;20672;-59
2022/02/13 06:17:42;;;;;;;7.60;5.90;;;0.40;99.90;;;;;;5072177;28;20254;-58
2022/02/13 06:20:10;;;;;;;7.83;5.63;;;0.40;99.90;;;;;;5072005;28;20250;-58
2022/02/13 06:22:37;;;;;;;8.43;5.40;;;0.40;99.90;;;;;;5072148;28;20212;-59
2022/02/13 06:25:06;;;;;;;6.87;5.00;;;0.50;99.90;;;;;;5071950;28;20209;-61
2022/02/13 06:27:33;;;;;;;7.10;5.27;;;0.50;99.90;;;;;;5071818;28;20760;-58
2022/02/13 06:30:00;;;;;;;9.17;5.40;;;0.50;99.90;;;;;;5071877;28;20214;-59
2022/02/13 06:32:27;;;;;;;8.27;5.77;;;0.60;99.90;;;;;;5071914;28;20215;-58
2022/02/13 06:34:54;;;;;;;9.70;5.43;;;0.50;99.90;;;;;;5071893;28;20205;-59
2022/02/13 06:37:20;;;;;;;6.60;5.53;;;0.50;99.90;;;;;;5071834;28;20212;-58
2022/02/13 06:39:47;;;;;;;8.07;5.60;;;0.40;99.90;;;;;;5071340;28;20270;-59
2022/02/13 06:42:15;;;;;;;11.10;7.87;;;0.30;99.90;;;;;;5071823;28;20213;-59
2022/02/13 06:44:42;;;;;;;12.70;6.93;;;0.20;99.90;;;;;;5071770;28;20700;-59
2022/02/13 06:47:08;;;;;;;9.70;6.37;;;0.20;99.90;;;;;;5071860;28;20212;-57
2022/02/13 06:49:35;;;;;;;7.47;5.93;;;0.20;99.90;;;;;;5071559;28;20208;-58
2022/02/13 06:52:02;;;;;;;9.80;6.10;;;0.10;99.90;;;;;;5071614;28;20664;-58
2022/02/13 06:54:29;;;;;;;7.67;5.43;;;0.20;99.90;;;;;;5071452;28;20308;-58
2022/02/13 06:56:55;;;;;;;6.53;5.47;;;0.30;99.90;;;;;;5071397;28;20201;-58
2022/02/13 06:59:24;;;;;;;8.90;5.80;;;0.40;99.90;;;;;;5071410;28;20224;-58
2022/02/13 07:01:51;;;;;;;10.37;6.87;;;0.50;99.90;;;;;;5071447;28;20672;-60
2022/02/13 07:04:20;;;;;;;9.10;6.10;;;0.60;99.90;;;;;;5071363;28;20236;-58
2022/02/13 07:06:47;;;;;;;9.13;6.87;;;0.60;99.90;;;;;;5071559;28;20220;-60
2022/02/13 07:09:13;;;;;;;10.57;6.43;;;0.70;99.90;;;;;;5071433;28;20205;-59
2022/02/13 07:11:40;;;;;;;11.03;6.80;;;0.90;99.90;;;;;;5071749;28;20270;-59
2022/02/13 07:14:07;;;;;;;11.93;6.70;;;1.00;99.90;;;;;;5071364;28;20521;-61
2022/02/13 07:16:35;;;;;;;14.77;9.17;;;1.10;99.90;;;;;;5071470;28;20259;-59
2022/02/13 07:19:02;;;;;;;11.37;7.33;;;1.60;99.90;;;;;;5071285;28;20228;-59
2022/02/13 07:21:28;;;;;;;12.30;6.70;;;2.30;99.90;;;;;;5071358;28;20212;-58
2022/02/13 07:23:55;;;;;;;8.97;6.83;;;3.10;99.90;;;;;;5071128;28;20596;-60
2022/02/13 07:26:24;;;;;;;10.90;7.60;;;3.70;99.90;;;;;;5073568;28;20209;-60
2022/02/13 07:29:02;;;;;;;10.30;7.07;;;4.10;99.90;;;;;;5074942;28;20566;-59
2022/02/13 07:31:30;;;;;;;9.97;7.53;;;4.10;99.90;;;;;;5074892;28;20207;-60
2022/02/13 07:33:58;;;;;;;8.87;6.00;;;3.80;99.90;;;;;;5074850;28;20225;-61
2022/02/13 07:36:25;;;;;;;9.30;6.07;;;3.50;99.90;;;;;;5075023;28;20205;-59
2022/02/13 07:38:52;;;;;;;8.30;5.27;;;3.20;99.90;;;;;;5074728;28;20232;-59
2022/02/13 07:41:19;;;;;;;7.90;5.40;;;3.00;99.90;;;;;;5074953;28;20204;-59
2022/02/13 07:43:47;;;;;;;8.53;5.77;;;2.90;99.90;;;;;;5074496;28;20712;-59
2022/02/13 07:46:14;;;;;;;8.73;5.63;;;2.80;99.90;;;;;;5074615;28;20266;-59
2022/02/13 07:48:40;;;;;;;9.27;5.33;;;2.80;99.90;;;;;;5074263;28;20626;-58
2022/02/13 07:51:10;;;;;;;8.97;5.23;;;2.70;99.90;;;;;;5074399;28;20216;-59
2022/02/13 07:53:36;;;;;;;13.73;6.77;;;2.70;99.90;;;;;;5074364;28;20311;-60
2022/02/13 07:56:04;;;;;;;9.47;6.47;;;2.70;99.90;;;;;;5074461;28;20209;-59
2022/02/13 07:58:32;;;;;;;8.77;5.60;;;2.70;99.90;;;;;;5074264;28;20274;-58
2022/02/13 08:00:59;;;;;;;8.03;5.57;;;2.70;99.90;;;;;;5074250;28;20201;-59
2022/02/13 08:03:26;;;;;;;13.43;8.70;;;2.80;99.90;;;;;;5073899;28;20310;-59
2022/02/13 08:05:52;;;;;;;10.90;7.67;;;3.00;99.90;;;;;;5074154;28;20666;-59
2022/02/13 08:08:21;;;;;;;10.17;6.70;;;3.10;99.90;;;;;;5074143;28;20281;-60
2022/02/13 08:10:47;;;;;;;8.83;6.13;;;3.20;99.90;;;;;;5074257;28;20258;-59
2022/02/13 08:13:14;;;;;;;9.00;5.60;;;3.30;99.90;;;;;;5074160;28;20237;-59
2022/02/13 08:15:41;;;;;;;9.37;5.50;;;3.30;99.90;;;;;;5073886;28;20669;-59
2022/02/13 08:18:09;;;;;;;7.40;5.23;;;3.40;99.90;;;;;;5073543;28;20205;-59
2022/02/13 08:20:36;;;;;;;7.10;5.37;;;3.50;99.90;;;;;;5073944;28;20228;-60
2022/02/13 08:23:03;;;;;;;8.93;5.07;;;3.50;99.90;;;;;;5073944;28;20251;-59
2022/02/13 08:25:31;;;;;;;8.50;5.20;;;3.70;99.90;;;;;;5073880;28;20209;-58
2022/02/13 08:27:58;;;;;;;7.67;5.40;;;3.90;99.90;;;;;;5073755;28;20258;-58
2022/02/13 08:30:25;;;;;;;8.80;5.13;;;4.10;99.90;;;;;;5073483;28;20212;-58
2022/02/13 08:32:51;;;;;;;7.87;5.07;;;4.40;99.90;;;;;;5073486;28;20233;-58
2022/02/13 08:35:18;;;;;;;6.73;4.60;;;4.70;99.90;;;;;;5073754;28;20205;-58
2022/02/13 08:37:45;;;;;;;8.97;5.40;;;5.00;99.90;;;;;;5072926;28;20216;-58
2022/02/13 08:40:13;;;;;;;7.97;5.47;;;5.40;99.90;;;;;;5073282;28;20225;-58
2022/02/13 08:42:41;;;;;;;7.83;5.60;;;5.70;99.90;;;;;;5073628;28;20236;-57
2022/02/13 08:45:08;;;;;;;7.60;5.80;;;6.10;99.90;;;;;;5073396;28;20201;-57
2022/02/13 08:47:35;;;;;;;7.37;5.43;;;6.40;99.90;;;;;;5073522;28;20278;-58
2022/02/13 08:50:02;;;;;;;12.23;7.30;;;6.50;99.90;;;;;;5073414;28;20251;-58
2022/02/13 08:52:29;;;;;;;7.17;4.80;;;6.50;99.90;;;;;;5073431;28;20207;-57
2022/02/13 08:54:56;;;;;;;11.10;5.80;;;6.60;99.90;;;;;;5073483;28;20205;-57
2022/02/13 08:57:23;;;;;;;7.30;5.00;;;6.70;99.90;;;;;;5073145;28;20205;-57
2022/02/13 08:59:51;;;;;;;9.10;5.00;;;6.70;99.90;;;;;;5072975;28;20270;-57
2022/02/13 09:02:18;;;;;;;7.97;4.83;;;6.80;99.90;;;;;;5073938;28;20212;-58
2022/02/13 09:04:44;;;;;;;9.87;7.50;;;6.70;99.90;;;;;;5088171;22;20233;-61
2022/02/13 09:07:11;;;;;;;7.77;4.03;;;6.90;99.90;;;;;;5053747;28;20210;-60
2022/02/13 09:09:41;;;;;;;6.53;4.40;;;7.00;99.90;;;;;;5053116;28;20212;-61
2022/02/13 09:12:08;;;;;;;6.17;4.50;;;7.10;99.90;;;;;;5053418;28;20665;-60
2022/02/13 09:14:36;;;;;;;11.10;4.23;;;7.30;99.90;;;;;;5052834;28;20244;-60
2022/02/13 09:17:04;;;;;;;8.10;4.70;;;7.40;99.90;;;;;;5053648;28;20213;-61
2022/02/13 09:19:31;;;;;;;6.90;4.67;;;7.50;99.90;;;;;;5053009;28;20225;-60
2022/02/13 09:21:58;;;;;;;8.10;4.93;;;7.80;99.90;;;;;;5053466;28;20221;-61
2022/02/13 09:24:25;;;;;;;7.30;4.73;;;7.90;99.90;;;;;;5053441;28;20222;-61
2022/02/13 09:26:52;;;;;;;7.80;4.63;;;8.00;99.90;;;;;;5052926;28;20216;-60
2022/02/13 09:29:18;;;;;;;8.27;4.83;;;8.10;99.90;;;;;;5052929;28;20289;-60
2022/02/13 09:31:45;;;;;;;12.67;4.40;;;8.20;99.90;;;;;;5052990;28;20589;-60
2022/02/13 09:34:18;;;;;;;12.00;4.70;;;8.40;99.90;;;;;;5053319;28;20225;-59
2022/02/13 09:36:45;;;;;;;8.43;4.80;;;8.60;99.90;;;;;;5053575;28;20619;-60
2022/02/13 09:39:12;;;;;;;8.07;5.20;;;8.60;99.90;;;;;;5052716;28;20316;-59
2022/02/13 09:41:40;;;;;;;8.17;4.57;;;8.70;99.90;;;;;;5053074;28;20201;-60
2022/02/13 09:44:08;;;;;;;6.97;4.10;;;8.90;99.90;;;;;;5053083;28;20232;-60
2022/02/13 09:46:35;;;;;;;9.27;4.17;;;9.10;99.90;;;;;;5052629;28;20209;-60
2022/02/13 09:49:02;;;;;;;11.00;4.43;;;9.30;99.90;;;;;;5051580;28;20665;-60
2022/02/13 09:51:32;;;;;;;9.23;4.60;;;9.50;99.90;;;;;;5052783;28;20669;-60
2022/02/13 09:53:58;;;;;;;7.13;3.93;;;9.60;99.90;;;;;;5052819;28;20716;-60
2022/02/13 09:56:25;;;;;;;5.83;3.70;;;9.70;99.90;;;;;;5053085;28;20213;-60
2022/02/13 09:58:52;;;;;;;6.80;4.17;;;9.90;99.90;;;;;;5052466;28;20202;-60
2022/02/13 10:01:19;;;;;;;10.83;4.30;;;10.10;99.90;;;;;;5052689;28;20217;-60
2022/02/13 10:03:49;;;;;;;8.77;4.53;;;10.30;99.90;;;;;;5052584;28;20720;-60
2022/02/13 10:06:23;;;;;;;6.30;4.33;;;10.40;99.90;;;;;;5052464;28;20308;-60
2022/02/13 10:08:52;;;;;;;8.75;4.78;;;10.50;99.90;;;;;;5052720;28;20492;-62
2022/02/13 10:11:23;;;;;;;7.53;4.50;;;10.60;99.90;;;;;;5033977;28;20210;-61
2022/02/13 10:13:52;;;;;;;8.90;4.13;;;10.70;99.90;;;;;;5032700;28;20268;-60
2022/02/13 10:16:21;;;;;;;8.97;4.33;;;10.80;99.90;;;;;;5033061;28;20209;-64
2022/02/13 10:18:51;;;;;;;8.87;4.10;;;10.90;99.90;;;;;;5031978;28;20214;-61
2022/02/13 10:21:42;;;;;;;10.37;4.10;;;11.00;99.90;;;;;;5024088;28;20671;-63
2022/02/13 10:24:28;;;;;;;7.43;4.20;;;11.10;99.90;;;;;;5033139;28;20637;-62
2022/02/13 10:27:07;;;;;;;7.53;4.20;;;11.30;99.90;;;;;;5032687;28;20742;-60
2022/02/13 10:29:35;;;;;;;6.80;4.30;;;11.40;99.90;;;;;;5031833;28;20214;-59
2022/02/13 10:32:15;;;;;;;12.67;5.97;;;11.50;99.90;;;;;;5031809;28;20210;-59
2022/02/13 10:34:57;;;;;;;11.07;4.50;;;11.60;99.90;;;;;;5031781;28;20229;-60
2022/02/13 10:37:39;;;;;;;9.80;4.37;;;11.60;99.90;;;;;;5031753;28;20697;-61
2022/02/13 10:40:09;;;;;;;6.77;4.53;;;11.70;99.90;;;;;;5031352;28;20320;-59
2022/02/13 10:42:36;;;;;;;11.63;6.03;;;11.80;99.90;;;;;;5032027;28;20217;-59
2022/02/13 10:45:23;;;;;;;5.97;3.93;;;11.90;99.90;;;;;;5032308;28;20210;-59
2022/02/13 10:47:51;;;;;;;8.13;4.70;;;12.00;99.90;;;;;;5031601;28;20246;-60
2022/02/13 10:50:20;;;;;;;8.50;4.20;;;12.20;99.90;;;;;;5031880;28;20205;-59
2022/02/13 10:52:48;;;;;;;8.53;4.33;;;12.30;99.70;;;;;;5031862;28;20733;-59
2022/02/13 10:55:16;;;;;;;8.67;4.37;;;12.40;99.60;;;;;;5031727;28;20206;-59
2022/02/13 10:57:43;;;;;;;7.53;3.93;;;12.50;99.10;;;;;;5031484;28;20673;-59
2022/02/13 11:00:12;;;;;;;26.93;17.40;;;12.50;98.60;;;;;;5031719;28;20646;-59
2022/02/13 11:02:39;;;;;;;7.57;5.27;;;12.60;98.50;;;;;;5034929;28;20210;-59
2022/02/13 11:05:08;;;;;;;7.00;4.37;;;12.60;98.20;;;;;;5035307;28;20210;-59
2022/02/13 11:07:39;;;;;;;10.00;4.23;;;12.70;97.90;;;;;;5035626;28;20241;-59
2022/02/13 11:10:09;;;;;;;13.23;4.33;;;12.80;97.70;;;;;;5035340;28;20203;-59
2022/02/13 11:12:37;;;;;;;8.83;4.00;;;12.90;97.60;;;;;;5035883;28;20316;-59
2022/02/13 11:15:18;;;;;;;7.50;4.10;;;12.90;97.60;;;;;;5035420;28;20217;-59
2022/02/13 11:17:46;;;;;;;7.87;4.30;;;13.00;97.20;;;;;;5034750;28;20202;-59
2022/02/13 11:20:15;;;;;;;8.73;4.50;;;13.00;96.80;;;;;;5034672;28;20237;-59
2022/02/13 11:22:42;;;;;;;7.90;4.40;;;13.20;96.90;;;;;;5035116;28;20213;-59
2022/02/13 11:25:10;;;;;;;10.43;4.37;;;13.30;97.00;;;;;;5035057;28;20690;-58
2022/02/13 11:27:54;;;;;;;10.13;4.33;;;13.40;96.70;;;;;;5034935;28;20202;-60
2022/02/13 11:30:43;;;;;;;6.60;4.10;;;13.50;95.70;;;;;;5032533;28;20293;-59
2022/02/13 11:33:11;;;;;;;7.47;4.23;;;13.60;95.20;;;;;;5034689;28;20230;-59
2022/02/13 11:35:57;;;;;;;7.63;3.53;;;13.70;95.10;;;;;;5035008;28;20202;-59
2022/02/13 11:38:58;;;;;;;8.03;4.10;;;13.70;95.10;;;;;;5034118;28;20209;-61
2022/02/13 11:42:10;;;;;;;8.13;4.00;;;13.70;94.50;;;;;;5035235;28;20229;-62
2022/02/13 11:44:55;;;;;;;7.07;3.83;;;13.70;94.10;;;;;;5035125;28;20732;-60
2022/02/13 11:47:40;;;;;;;6.20;3.77;;;13.70;93.70;;;;;;5034744;28;20797;-60
2022/02/13 11:50:26;;;;;;;5.87;3.30;;;13.80;93.60;;;;;;5035133;28;20312;-59
2022/02/13 11:52:58;;;;;;;7.33;3.57;;;13.80;93.60;;;;;;5035646;28;20202;-59
2022/02/13 11:55:27;;;;;;;6.07;3.73;;;13.90;93.70;;;;;;5035084;28;20233;-59
2022/02/13 11:57:55;;;;;;;8.10;3.80;;;14.00;93.00;;;;;;5034708;28;20202;-59
2022/02/13 12:00:41;;;;;;;9.03;4.47;;;14.00;92.30;;;;;;5034833;28;20226;-59
2022/02/13 12:03:12;;;;;;;10.50;5.17;;;14.00;92.40;;;;;;5035264;28;20230;-59
2022/02/13 12:05:39;;;;;;;8.03;3.57;;;14.20;92.20;;;;;;5034618;28;20581;-59
2022/02/13 12:08:06;;;;;;;9.27;4.20;;;14.20;92.00;;;;;;5034905;28;20210;-59
2022/02/13 12:10:36;;;;;;;10.17;4.43;;;14.20;92.00;;;;;;5034213;28;20209;-59
2022/02/13 12:13:08;;;;;;;6.23;4.00;;;14.20;92.00;;;;;;5033859;28;20302;-60
2022/02/13 12:15:36;;;;;;;8.57;3.87;;;14.20;91.90;;;;;;5035106;28;20586;-61
2022/02/13 12:18:11;;;;;;;8.07;3.73;;;14.10;91.90;;;;;;5035215;28;20211;-60
2022/02/13 12:20:39;;;;;;;7.57;3.67;;;14.10;91.90;;;;;;5034854;28;20309;-60
2022/02/13 12:23:08;;;;;;;8.73;3.63;;;14.20;91.70;;;;;;5034580;28;20235;-60
2022/02/13 12:25:37;;;;;;;8.97;3.93;;;14.30;91.60;;;;;;5035307;28;20210;-60
2022/02/13 12:28:06;;;;;;;7.20;3.67;;;14.30;91.60;;;;;;5034693;28;20584;-60
2022/02/13 12:30:34;;;;;;;6.97;3.90;;;14.40;91.30;;;;;;5034619;28;20202;-60
2022/02/13 12:33:05;;;;;;;7.93;4.13;;;14.40;91.40;;;;;;5034437;28;20226;-60
2022/02/13 12:35:34;;;;;;;8.60;4.03;;;14.40;91.10;;;;;;5034581;28;20206;-60
2022/02/13 12:38:02;;;;;;;9.23;3.70;;;14.50;90.80;;;;;;5034456;28;20218;-60
2022/02/13 12:40:31;;;;;;;6.90;3.47;;;14.50;90.60;;;;;;5033799;28;20226;-60
2022/02/13 12:43:03;;;;;;;5.90;3.77;;;14.60;90.20;;;;;;5033911;28;20709;-60
2022/02/13 12:45:31;;;;;;;8.07;3.37;;;14.70;90.10;;;;;;5034000;28;20217;-60
2022/02/13 12:48:00;;;;;;;7.07;3.70;;;14.60;90.00;;;;;;5033998;28;20213;-59
2022/02/13 12:50:29;;;;;;;8.90;3.50;;;14.60;90.00;;;;;;5033718;28;20202;-59
2022/02/13 12:53:00;;;;;;;8.17;4.20;;;14.60;90.20;;;;;;5033701;28;20234;-60
2022/02/13 12:55:29;;;;;;;6.90;3.40;;;14.60;89.70;;;;;;5034153;28;20206;-60
2022/02/13 12:57:58;;;;;;;7.53;4.17;;;14.70;89.30;;;;;;5033730;28;20297;-60
2022/02/13 13:00:27;;;;;;;6.83;4.33;;;14.70;88.80;;;;;;5033276;28;20233;-59